Time;durP1;ratioP1;P1;durP2;ratioP2;P2;SDS_P1;SDS_P2;PMS_P1;PMS_P2;Temp;Humidity;BMP_temperature;BMP_pressure;BME280_temperature;BME280_humidity;BME280_pressure;Samples;Min_cycle;Max_cycle;Signal;HPM_P1;HPM_P2
2020/12/18 00:01:37;;;;;;;;;;;;;;;;;;5034239;28;1381;-83
2020/12/18 00:04:02;;;;;;;;;;;;;;;;;;5034760;28;869;-83
2020/12/18 00:06:34;;;;;;;;;;;;;;;;;;5035637;28;794;-83
2020/12/18 00:08:59;;;;;;;;;;;;;;;;;;5035518;28;864;-83
2020/12/18 00:11:26;;;;;;;;;;;;;;;;;;5035453;28;1375;-82
2020/12/18 00:13:52;;;;;;;;;;;;;;;;;;5034310;28;1156;-83
2020/12/18 00:16:18;;;;;;;;;;;;;;;;;;5035160;28;1898;-83
2020/12/18 00:18:43;;;;;;;;;;;;;;;;;;5035405;28;896;-83
2020/12/18 00:21:09;;;;;;;;;;;;;;;;;;5033738;28;1115;-83
2020/12/18 00:23:34;;;;;;;;;;;;;;;;;;5035186;28;1336;-83
2020/12/18 00:25:59;;;;;;;;;;;;;;;;;;5035289;28;801;-83
2020/12/18 00:28:24;;;;;;;;;;;;;;;;;;5034891;28;723;-83
2020/12/18 00:30:50;;;;;;;;;;;;;;;;;;5033687;28;1307;-83
2020/12/18 00:33:15;;;;;;;;;;;;;;;;;;5034987;28;1395;-83
2020/12/18 00:35:40;;;;;;;;;;;;;;;;;;5034951;28;932;-83
2020/12/18 00:38:06;;;;;;;;;;;;;;;;;;5034800;28;1886;-83
2020/12/18 00:40:31;;;;;;;;;;;;;;;;;;5033891;28;829;-83
2020/12/18 00:42:56;;;;;;;;;;;;;;;;;;5035432;28;1296;-83
2020/12/18 00:45:22;;;;;;;;;;;;;;;;;;5035477;28;940;-83
2020/12/18 00:47:47;;;;;;;;;;;;;;;;;;5035321;28;884;-83
2020/12/18 00:50:12;;;;;;;;;;;;;;;;;;5033867;28;1604;-83
2020/12/18 00:52:38;;;;;;;;;;;;;;;;;;5035188;28;1304;-83
2020/12/18 00:55:03;;;;;;;;;;;;;;;;;;5033880;28;1489;-83
2020/12/18 00:57:30;;;;;;;;;;;;;;;;;;5035739;28;1883;-83
2020/12/18 00:59:55;;;;;;;;;;;;;;;;;;5033606;28;1244;-83
2020/12/18 01:02:20;;;;;;;;;;;;;;;;;;5035090;28;1384;-83
2020/12/18 01:04:45;;;;;;;;;;;;;;;;;;5033951;28;1352;-83
2020/12/18 01:07:11;;;;;;;;;;;;;;;;;;5035039;28;916;-83
2020/12/18 01:09:36;;;;;;;;;;;;;;;;;;5034712;28;786;-83
2020/12/18 01:12:02;;;;;;;;;;;;;;;;;;5034948;28;1286;-83
2020/12/18 01:14:27;;;;;;;;;;;;;;;;;;5033885;28;841;-83
2020/12/18 01:16:53;;;;;;;;;;;;;;;;;;5034827;28;1894;-83
2020/12/18 01:19:18;;;;;;;;;;;;;;;;;;5035052;28;866;-83
2020/12/18 01:21:44;;;;;;;;;;;;;;;;;;5033213;28;1282;-83
2020/12/18 01:24:09;;;;;;;;;;;;;;;;;;5034617;28;806;-83
2020/12/18 01:26:34;;;;;;;;;;;;;;;;;;5033592;28;1159;-83
2020/12/18 01:28:59;;;;;;;;;;;;;;;;;;5034606;28;798;-83
2020/12/18 01:31:25;;;;;;;;;;;;;;;;;;5034480;28;1300;-83
2020/12/18 01:33:51;;;;;;;;;;;;;;;;;;5034915;28;928;-83
2020/12/18 01:36:17;;;;;;;;;;;;;;;;;;5034709;28;1890;-83
2020/12/18 01:38:44;;;;;;;;;;;;;;;;;;5033418;28;818;-83
2020/12/18 01:41:09;;;;;;;;;;;;;;;;;;5033191;28;870;-83
2020/12/18 01:43:35;;;;;;;;;;;;;;;;;;5034443;28;1410;-83
2020/12/18 01:46:04;;;;;;;;;;;;;;;;;;5034516;28;853;-83
2020/12/18 01:48:30;;;;;;;;;;;;;;;;;;5034497;28;912;-82
2020/12/18 01:50:56;;;;;;;;;;;;;;;;;;5034656;28;822;-83
2020/12/18 01:53:21;;;;;;;;;;;;;;;;;;5033331;28;1392;-83
2020/12/18 01:55:48;;;;;;;;;;;;;;;;;;5034607;28;1043;-84
2020/12/18 01:58:13;;;;;;;;;;;;;;;;;;5035001;28;1894;-82
2020/12/18 02:00:42;;;;;;;;;;;;;;;;;;5033894;28;857;-82
2020/12/18 02:03:07;;;;;;;;;;;;;;;;;;5034219;28;1378;-82
2020/12/18 02:05:32;;;;;;;;;;;;;;;;;;5034396;28;948;-82
2020/12/18 02:08:04;;;;;;;;;;;;;;;;;;5033360;28;941;-82
2020/12/18 02:10:29;;;;;;;;;;;;;;;;;;5036035;28;940;-82
2020/12/18 02:12:55;;;;;;;;;;;;;;;;;;5037344;28;1388;-82
2020/12/18 02:15:22;;;;;;;;;;;;;;;;;;5036908;28;1294;-83
2020/12/18 02:17:48;;;;;;;;;;;;;;;;;;5038302;28;1961;-83
2020/12/18 02:20:14;;;;;;;;;;;;;;;;;;5036717;28;1356;-83
2020/12/18 02:22:41;;;;;;;;;;;;;;;;;;5036779;28;1328;-83
2020/12/18 02:25:10;;;;;;;;;;;;;;;;;;5038032;28;845;-83
2020/12/18 02:27:36;;;;;;;;;;;;;;;;;;5036985;28;1347;-83
2020/12/18 02:30:02;;;;;;;;;;;;;;;;;;5037824;28;955;-83
2020/12/18 02:32:27;;;;;;;;;;;;;;;;;;5036792;28;1367;-83
2020/12/18 02:34:53;;;;;;;;;;;;;;;;;;5037980;28;896;-83
2020/12/18 02:37:18;;;;;;;;;;;;;;;;;;5036503;28;1955;-83
2020/12/18 02:39:43;;;;;;;;;;;;;;;;;;5036273;28;1449;-83
2020/12/18 02:42:09;;;;;;;;;;;;;;;;;;5036893;28;1451;-83
2020/12/18 02:44:34;;;;;;;;;;;;;;;;;;5037690;28;810;-83
2020/12/18 02:46:59;;;;;;;;;;;;;;;;;;5036711;28;1140;-83
2020/12/18 02:49:24;;;;;;;;;;;;;;;;;;5037611;28;1003;-83
2020/12/18 02:51:50;;;;;;;;;;;;;;;;;;5036514;28;1372;-83
2020/12/18 02:54:15;;;;;;;;;;;;;;;;;;5036624;28;1133;-83
2020/12/18 02:56:40;;;;;;;;;;;;;;;;;;5037304;28;1961;-83
2020/12/18 02:59:06;;;;;;;;;;;;;;;;;;5037356;28;974;-83
2020/12/18 03:01:31;;;;;;;;;;;;;;;;;;5037166;28;1267;-83
2020/12/18 03:03:56;;;;;;;;;;;;;;;;;;5037765;28;809;-82
2020/12/18 03:06:22;;;;;;;;;;;;;;;;;;5037295;28;1047;-82
2020/12/18 03:08:47;;;;;;;;;;;;;;;;;;5036335;28;889;-82
2020/12/18 03:11:13;;;;;;;;;;;;;;;;;;5036878;28;1286;-82
2020/12/18 03:13:38;;;;;;;;;;;;;;;;;;5037478;28;715;-82
2020/12/18 03:16:04;;;;;;;;;;;;;;;;;;5036158;28;1185;-82
2020/12/18 03:18:29;;;;;;;;;;;;;;;;;;5037141;28;817;-82
2020/12/18 03:20:54;;;;;;;;;;;;;;;;;;5036180;28;877;-83
2020/12/18 03:23:20;;;;;;;;;;;;;;;;;;5036333;28;1330;-83
2020/12/18 03:25:45;;;;;;;;;;;;;;;;;;5036783;28;854;-83
2020/12/18 03:28:10;;;;;;;;;;;;;;;;;;5036913;28;813;-83
2020/12/18 03:30:35;;;;;;;;;;;;;;;;;;5035708;28;1220;-83
2020/12/18 03:33:01;;;;;;;;;;;;;;;;;;5036802;28;1319;-83
2020/12/18 03:35:27;;;;;;;;;;;;;;;;;;5036815;28;870;-83
2020/12/18 03:37:52;;;;;;;;;;;;;;;;;;5035413;28;1967;-83
2020/12/18 03:40:18;;;;;;;;;;;;;;;;;;5035103;28;1313;-83
2020/12/18 03:42:43;;;;;;;;;;;;;;;;;;5035264;28;1466;-83
2020/12/18 03:45:08;;;;;;;;;;;;;;;;;;5035725;28;893;-83
2020/12/18 03:47:33;;;;;;;;;;;;;;;;;;5035255;28;877;-82
2020/12/18 03:49:59;;;;;;;;;;;;;;;;;;5035158;28;2390;-82
2020/12/18 03:52:24;;;;;;;;;;;;;;;;;;5036420;28;1292;-83
2020/12/18 03:54:49;;;;;;;;;;;;;;;;;;5036298;28;912;-83
2020/12/18 03:57:15;;;;;;;;;;;;;;;;;;5035479;28;1886;-83
2020/12/18 03:59:40;;;;;;;;;;;;;;;;;;5036184;28;947;-83
2020/12/18 04:02:05;;;;;;;;;;;;;;;;;;5036119;28;1317;-83
2020/12/18 04:04:31;;;;;;;;;;;;;;;;;;5034956;28;1383;-83
2020/12/18 04:06:56;;;;;;;;;;;;;;;;;;5034985;28;1278;-83
2020/12/18 04:09:22;;;;;;;;;;;;;;;;;;5035998;28;944;-83
2020/12/18 04:11:47;;;;;;;;;;;;;;;;;;5034809;28;1448;-83
2020/12/18 04:14:12;;;;;;;;;;;;;;;;;;5036255;28;814;-83
2020/12/18 04:16:38;;;;;;;;;;;;;;;;;;5036134;28;1947;-84
2020/12/18 04:19:03;;;;;;;;;;;;;;;;;;5035090;28;1360;-83
2020/12/18 04:21:28;;;;;;;;;;;;;;;;;;5034607;28;1346;-83
2020/12/18 04:23:53;;;;;;;;;;;;;;;;;;5034596;28;1453;-83
2020/12/18 04:26:19;;;;;;;;;;;;;;;;;;5035635;28;976;-83
2020/12/18 04:28:44;;;;;;;;;;;;;;;;;;5035892;28;944;-84
2020/12/18 04:31:09;;;;;;;;;;;;;;;;;;5034294;28;1262;-83
2020/12/18 04:33:35;;;;;;;;;;;;;;;;;;5034177;28;1424;-83
2020/12/18 04:36:00;;;;;;;;;;;;;;;;;;5035683;28;845;-83
2020/12/18 04:38:26;;;;;;;;;;;;;;;;;;5035626;28;1961;-83
2020/12/18 04:40:52;;;;;;;;;;;;;;;;;;5035186;28;936;-84
2020/12/18 04:43:17;;;;;;;;;;;;;;;;;;5034506;28;1334;-84
2020/12/18 04:45:42;;;;;;;;;;;;;;;;;;5034772;28;1238;-83
2020/12/18 04:48:08;;;;;;;;;;;;;;;;;;5034494;28;889;-83
2020/12/18 04:50:34;;;;;;;;;;;;;;;;;;5034123;28;1222;-83
2020/12/18 04:53:01;;;;;;;;;;;;;;;;;;5034292;28;1335;-83
2020/12/18 04:55:27;;;;;;;;;;;;;;;;;;5034116;28;1083;-83
2020/12/18 04:57:53;;;;;;;;;;;;;;;;;;5035478;28;1980;-84
2020/12/18 05:00:18;;;;;;;;;;;;;;;;;;5034487;28;893;-83
2020/12/18 05:02:44;;;;;;;;;;;;;;;;;;5034839;28;1445;-83
2020/12/18 05:05:10;;;;;;;;;;;;;;;;;;5034710;28;1155;-83
2020/12/18 05:07:35;;;;;;;;;;;;;;;;;;5037068;28;789;-83
2020/12/18 05:10:01;;;;;;;;;;;;;;;;;;5034906;28;904;-83
2020/12/18 05:12:26;;;;;;;;;;;;;;;;;;5034201;28;1522;-83
2020/12/18 05:14:51;;;;;;;;;;;;;;;;;;5034023;28;1268;-83
2020/12/18 05:17:17;;;;;;;;;;;;;;;;;;5033918;28;1890;-83
2020/12/18 05:19:43;;;;;;;;;;;;;;;;;;5034005;28;857;-83
2020/12/18 05:22:10;;;;;;;;;;;;;;;;;;5033885;28;1347;-83
2020/12/18 05:24:36;;;;;;;;;;;;;;;;;;5035965;28;1370;-83
2020/12/18 05:27:02;;;;;;;;;;;;;;;;;;5035804;28;818;-83
2020/12/18 05:29:29;;;;;;;;;;;;;;;;;;5042461;28;826;-83
2020/12/18 05:31:55;;;;;;;;;;;;;;;;;;5036849;28;1316;-83
2020/12/18 05:34:21;;;;;;;;;;;;;;;;;;5039058;28;862;-83
2020/12/18 05:36:46;;;;;;;;;;;;;;;;;;5035870;28;1945;-83
2020/12/18 05:39:12;;;;;;;;;;;;;;;;;;5034591;28;908;-83
2020/12/18 05:41:39;;;;;;;;;;;;;;;;;;5033703;28;1397;-83
2020/12/18 05:44:05;;;;;;;;;;;;;;;;;;5034203;28;889;-83
2020/12/18 05:46:34;;;;;;;;;;;;;;;;;;5033400;28;794;-83
2020/12/18 05:49:00;;;;;;;;;;;;;;;;;;5033212;28;1255;-83
2020/12/18 05:51:33;;;;;;;;;;;;;;;;;;5034212;28;1364;-83
2020/12/18 05:54:07;;;;;;;;;;;;;;;;;;5034455;28;810;-83
2020/12/18 05:56:33;;;;;;;;;;;;;;;;;;5033534;28;1929;-83
2020/12/18 05:59:09;;;;;;;;;;;;;;;;;;5034690;28;820;-83
2020/12/18 06:01:38;;;;;;;;;;;;;;;;;;5033025;28;1316;-83
2020/12/18 06:04:08;;;;;;;;;;;;;;;;;;5034372;28;901;-83
2020/12/18 06:06:35;;;;;;;;;;;;;;;;;;5033178;28;881;-83
2020/12/18 06:09:00;;;;;;;;;;;;;;;;;;5034369;28;778;-83
2020/12/18 06:11:29;;;;;;;;;;;;;;;;;;5033158;28;1299;-83
2020/12/18 06:13:56;;;;;;;;;;;;;;;;;;5034458;28;901;-83
2020/12/18 06:16:22;;;;;;;;;;;;;;;;;;5032999;28;1961;-83
2020/12/18 06:18:49;;;;;;;;;;;;;;;;;;5034160;28;810;-83
2020/12/18 06:21:17;;;;;;;;;;;;;;;;;;5034171;28;1282;-83
2020/12/18 06:23:45;;;;;;;;;;;;;;;;;;5034668;28;884;-83
2020/12/18 06:26:11;;;;;;;;;;;;;;;;;;5033203;28;893;-83
2020/12/18 06:28:36;;;;;;;;;;;;;;;;;;5034164;28;908;-83
2020/12/18 06:31:20;;;;;;;;;;;;;;;;;;5033058;28;1410;-82
2020/12/18 06:33:52;;;;;;;;;;;;;;;;;;5034237;28;876;-83
2020/12/18 06:36:19;;;;;;;;;;;;;;;;;;5032776;28;1890;-83
2020/12/18 06:38:45;;;;;;;;;;;;;;;;;;5034152;28;822;-83
2020/12/18 06:41:21;;;;;;;;;;;;;;;;;;5033910;28;813;-83
2020/12/18 06:43:46;;;;;;;;;;;;;;;;;;5032723;28;921;-83
2020/12/18 06:46:11;;;;;;;;;;;;;;;;;;5033536;28;1266;-83
2020/12/18 06:48:37;;;;;;;;;;;;;;;;;;5034539;28;849;-83
2020/12/18 06:51:02;;;;;;;;;;;;;;;;;;5033796;28;829;-82
2020/12/18 06:53:27;;;;;;;;;;;;;;;;;;5034579;28;1428;-83
2020/12/18 06:55:53;;;;;;;;;;;;;;;;;;5033812;28;1286;-83
2020/12/18 06:58:27;;;;;;;;;;;;;;;;;;5036761;28;1890;-83
2020/12/18 07:00:54;;;;;;;;;;;;;;;;;;5037430;28;895;-83
2020/12/18 07:03:36;;;;;;;;;;;;;;;;;;5037504;28;1410;-83
2020/12/18 07:06:03;;;;;;;;;;;;;;;;;;5036422;28;1377;-82
2020/12/18 07:08:32;;;;;;;;;;;;;;;;;;5037387;28;798;-82
2020/12/18 07:11:02;;;;;;;;;;;;;;;;;;5035756;28;1121;-82
2020/12/18 07:13:29;;;;;;;;;;;;;;;;;;5036355;28;1389;-82
2020/12/18 07:15:57;;;;;;;;;;;;;;;;;;5035956;28;1287;-82
2020/12/18 07:18:23;;;;;;;;;;;;;;;;;;5035652;28;1951;-82
2020/12/18 07:20:59;;;;;;;;;;;;;;;;;;5035701;28;1200;-82
2020/12/18 07:23:26;;;;;;;;;;;;;;;;;;5036957;28;1318;-82
2020/12/18 07:25:51;;;;;;;;;;;;;;;;;;5037011;28;885;-83
2020/12/18 07:28:19;;;;;;;;;;;;;;;;;;5036846;28;892;-83
2020/12/18 07:30:45;;;;;;;;;;;;;;;;;;5036625;28;929;-83
2020/12/18 07:33:11;;;;;;;;;;;;;;;;;;5035600;28;1424;-83
2020/12/18 07:35:41;;;;;;;;;;;;;;;;;;5035744;28;1286;-83
2020/12/18 07:38:32;;;;;;;;;;;;;;;;;;5036647;28;1890;-83
2020/12/18 07:40:58;;;;;;;;;;;;;;;;;;5030663;28;2021;-83
2020/12/18 07:43:30;;;;;;;;;;;;;;;;;;5035428;28;1506;-82
2020/12/18 07:45:56;;;;;;;;;;;;;;;;;;5036633;28;1004;-83
2020/12/18 07:48:31;;;;;;;;;;;;;;;;;;5035512;28;928;-82
2020/12/18 07:51:01;;;;;;;;;;;;;;;;;;5036308;28;909;-82
2020/12/18 07:53:27;;;;;;;;;;;;;;;;;;5035199;28;1401;-82
2020/12/18 07:56:03;;;;;;;;;;;;;;;;;;5035147;28;1482;-83
2020/12/18 07:58:29;;;;;;;;;;;;;;;;;;5034973;28;1959;-82
2020/12/18 08:01:08;;;;;;;;;;;;;;;;;;5036125;28;970;-83
2020/12/18 08:03:33;;;;;;;;;;;;;;;;;;5034976;28;1510;-83
2020/12/18 08:06:02;;;;;;;;;;;;;;;;;;5034910;28;1461;-83
2020/12/18 08:08:28;;;;;;;;;;;;;;;;;;5034228;28;1340;-83
2020/12/18 08:10:53;;;;;;;;;;;;;;;;;;5034685;28;1442;-83
2020/12/18 08:13:25;;;;;;;;;;;;;;;;;;5035933;28;1318;-83
2020/12/18 08:15:51;;;;;;;;;;;;;;;;;;5034987;28;1362;-83
2020/12/18 08:18:16;;;;;;;;;;;;;;;;;;5034730;28;1898;-83
2020/12/18 08:20:44;;;;;;;;;;;;;;;;;;5034549;28;822;-83
2020/12/18 08:23:12;;;;;;;;;;;;;;;;;;5034595;28;1365;-83
2020/12/18 08:25:38;;;;;;;;;;;;;;;;;;5035721;28;829;-83
2020/12/18 08:28:04;;;;;;;;;;;;;;;;;;5034495;28;909;-83
2020/12/18 08:30:31;;;;;;;;;;;;;;;;;;5034294;28;1345;-83
2020/12/18 08:32:57;;;;;;;;;;;;;;;;;;5034478;28;1404;-83
2020/12/18 08:35:23;;;;;;;;;;;;;;;;;;5034500;28;1177;-83
2020/12/18 08:37:49;;;;;;;;;;;;;;;;;;5035650;28;1890;-83
2020/12/18 08:40:32;;;;;;;;;;;;;;;;;;5035313;28;818;-83
2020/12/18 08:42:58;;;;;;;;;;;;;;;;;;5035592;28;1392;-83
2020/12/18 08:45:23;;;;;;;;;;;;;;;;;;5034466;28;1231;-83
2020/12/18 08:47:50;;;;;;;;;;;;;;;;;;5035771;28;909;-83
2020/12/18 08:50:17;;;;;;;;;;;;;;;;;;5034212;28;1153;-84
2020/12/18 08:52:43;;;;;;;;;;;;;;;;;;5033848;28;1404;-84
2020/12/18 08:55:08;;;;;;;;;;;;;;;;;;5034020;28;905;-83
2020/12/18 08:57:36;;;;;;;;;;;;;;;;;;5034058;28;1951;-83
2020/12/18 09:00:05;;;;;;;;;;;;;;;;;;5033737;28;1436;-83
2020/12/18 09:02:31;;;;;;;;;;;;;;;;;;5035403;28;1294;-83
2020/12/18 09:05:13;;;;;;;;;;;;;;;;;;5033771;28;846;-84
2020/12/18 09:07:44;;;;;;;;;;;;;;;;;;5035076;28;830;-83
2020/12/18 09:10:10;;;;;;;;;;;;;;;;;;5034808;28;797;-84
2020/12/18 09:12:39;;;;;;;;;;;;;;;;;;5029420;28;1447;-84
2020/12/18 09:15:17;;;;;;;;;;;;;;;;;;5016802;28;1298;-84
2020/12/18 09:17:43;;;;;;;;;;;;;;;;;;5022053;28;1906;-84
2020/12/18 09:20:08;;;;;;;;;;;;;;;;;;5024963;28;1240;-84
2020/12/18 09:22:33;;;;;;;;;;;;;;;;;;5019669;28;2331;-84
2020/12/18 09:25:02;;;;;;;;;;;;;;;;;;5029687;28;1271;-84
2020/12/18 09:27:27;;;;;;;;;;;;;;;;;;5027455;28;1393;-83
2020/12/18 09:29:59;;;;;;;;;;;;;;;;;;5033322;28;1223;-84
2020/12/18 09:32:24;;;;;;;;;;;;;;;;;;5049972;28;1352;-84
2020/12/18 09:34:50;;;;;;;;;;;;;;;;;;5034765;28;829;-84
2020/12/18 09:37:17;;;;;;;;;;;;;;;;;;5033399;28;1890;-84
2020/12/18 09:39:42;;;;;;;;;;;;;;;;;;5033481;28;1436;-85
2020/12/18 09:42:07;;;;;;;;;;;;;;;;;;5034518;28;1281;-85
2020/12/18 09:44:32;;;;;;;;;;;;;;;;;;5033585;28;1122;-83
2020/12/18 09:46:58;;;;;;;;;;;;;;;;;;5033122;28;1241;-83
2020/12/18 09:49:23;;;;;;;;;;;;;;;;;;5034489;28;845;-83
2020/12/18 09:51:48;;;;;;;;;;;;;;;;;;5033075;28;1363;-83
2020/12/18 09:54:14;;;;;;;;;;;;;;;;;;5034702;28;881;-83
2020/12/18 09:56:39;;;;;;;;;;;;;;;;;;5034408;28;1961;-83
2020/12/18 09:59:04;;;;;;;;;;;;;;;;;;5034581;28;955;-83
2020/12/18 10:01:29;;;;;;;;;;;;;;;;;;5034161;28;1295;-83
2020/12/18 10:03:55;;;;;;;;;;;;;;;;;;5034781;28;949;-84
2020/12/18 10:06:26;;;;;;;;;;;;;;;;;;5033134;28;850;-84
2020/12/18 10:08:52;;;;;;;;;;;;;;;;;;5033050;28;1406;-82
2020/12/18 10:11:17;;;;;;;;;;;;;;;;;;5034276;28;1267;-82
2020/12/18 10:13:43;;;;;;;;;;;;;;;;;;5033260;28;757;-82
2020/12/18 10:16:08;;;;;;;;;;;;;;;;;;5034239;28;920;-82
2020/12/18 10:18:33;;;;;;;;;;;;;;;;;;5032923;28;1898;-82
2020/12/18 10:21:01;;;;;;;;;;;;;;;;;;5034130;28;864;-82
2020/12/18 10:23:26;;;;;;;;;;;;;;;;;;5033231;28;1506;-82
2020/12/18 10:25:52;;;;;;;;;;;;;;;;;;5033042;28;837;-83
2020/12/18 10:28:17;;;;;;;;;;;;;;;;;;5034241;28;877;-83
2020/12/18 10:30:42;;;;;;;;;;;;;;;;;;5033217;28;1633;-83
2020/12/18 10:33:08;;;;;;;;;;;;;;;;;;5038019;28;1305;-83
2020/12/18 10:35:33;;;;;;;;;;;;;;;;;;5037048;28;1120;-83
2020/12/18 10:38:00;;;;;;;;;;;;;;;;;;5037844;28;1882;-83
2020/12/18 10:40:26;;;;;;;;;;;;;;;;;;5037728;28;905;-83
2020/12/18 10:42:52;;;;;;;;;;;;;;;;;;5036505;28;1317;-83
2020/12/18 10:45:17;;;;;;;;;;;;;;;;;;5036392;28;1483;-83
2020/12/18 10:47:42;;;;;;;;;;;;;;;;;;5037700;28;917;-83
2020/12/18 10:50:07;;;;;;;;;;;;;;;;;;5053073;28;999;-83
2020/12/18 10:52:33;;;;;;;;;;;;;;;;;;5037688;28;1379;-83
2020/12/18 10:54:58;;;;;;;;;;;;;;;;;;5037468;28;869;-83
2020/12/18 10:57:23;;;;;;;;;;;;;;;;;;5052912;28;1969;-83
2020/12/18 10:59:49;;;;;;;;;;;;;;;;;;5037303;28;1035;-83
2020/12/18 11:02:14;;;;;;;;;;;;;;;;;;5037580;28;1313;-83
2020/12/18 11:04:39;;;;;;;;;;;;;;;;;;5036648;28;1227;-83
2020/12/18 11:07:04;;;;;;;;;;;;;;;;;;5036043;28;1879;-83
2020/12/18 11:09:30;;;;;;;;;;;;;;;;;;5035981;28;968;-83
2020/12/18 11:11:57;;;;;;;;;;;;;;;;;;5035766;28;1363;-83
2020/12/18 11:14:22;;;;;;;;;;;;;;;;;;5037128;28;845;-83
2020/12/18 11:16:48;;;;;;;;;;;;;;;;;;5037021;28;1971;-83
2020/12/18 11:19:13;;;;;;;;;;;;;;;;;;5035887;28;879;-83
2020/12/18 11:21:43;;;;;;;;;;;;;;;;;;5036888;28;1298;-83
2020/12/18 11:24:08;;;;;;;;;;;;;;;;;;5035829;28;1168;-83
2020/12/18 11:26:34;;;;;;;;;;;;;;;;;;5036928;28;1272;-83
2020/12/18 11:28:59;;;;;;;;;;;;;;;;;;5035574;28;881;-83
2020/12/18 11:31:24;;;;;;;;;;;;;;;;;;5036976;28;1388;-84
2020/12/18 11:33:49;;;;;;;;;;;;;;;;;;5035676;28;947;-84
2020/12/18 11:36:15;;;;;;;;;;;;;;;;;;5036770;28;957;-84
2020/12/18 11:38:40;;;;;;;;;;;;;;;;;;5036667;28;1967;-83
2020/12/18 11:41:05;;;;;;;;;;;;;;;;;;5035443;28;1343;-83
2020/12/18 11:43:30;;;;;;;;;;;;;;;;;;5035398;28;1324;-83
2020/12/18 11:45:56;;;;;;;;;;;;;;;;;;5036638;28;777;-83
2020/12/18 11:48:22;;;;;;;;;;;;;;;;;;5035949;28;1675;-83
2020/12/18 11:50:48;;;;;;;;;;;;;;;;;;5035332;28;881;-83
2020/12/18 11:53:13;;;;;;;;;;;;;;;;;;5036495;28;1306;-83
2020/12/18 11:55:39;;;;;;;;;;;;;;;;;;5036449;28;849;-83
2020/12/18 11:58:04;;;;;;;;;;;;;;;;;;5033650;28;1894;-83
2020/12/18 12:00:30;;;;;;;;;;;;;;;;;;5037355;28;850;-83
2020/12/18 12:02:55;;;;;;;;;;;;;;;;;;5037138;28;1456;-83
2020/12/18 12:05:21;;;;;;;;;;;;;;;;;;5037648;28;1250;-83
2020/12/18 12:07:47;;;;;;;;;;;;;;;;;;5035214;28;1309;-83
2020/12/18 12:10:13;;;;;;;;;;;;;;;;;;5034743;28;1160;-83
2020/12/18 12:12:38;;;;;;;;;;;;;;;;;;5034693;28;1338;-83
2020/12/18 12:15:04;;;;;;;;;;;;;;;;;;5034842;28;894;-83
2020/12/18 12:17:30;;;;;;;;;;;;;;;;;;5035978;28;1957;-87
2020/12/18 12:19:55;;;;;;;;;;;;;;;;;;5035970;28;861;-87
2020/12/18 12:22:20;;;;;;;;;;;;;;;;;;5034716;28;1508;-87
2020/12/18 12:24:45;;;;;;;;;;;;;;;;;;5036123;28;857;-88
2020/12/18 12:27:11;;;;;;;;;;;;;;;;;;5034684;28;1228;-83
2020/12/18 12:29:36;;;;;;;;;;;;;;;;;;5034290;28;936;-82
2020/12/18 12:32:02;;;;;;;;;;;;;;;;;;5034540;28;1362;-83
2020/12/18 12:34:27;;;;;;;;;;;;;;;;;;5035753;28;865;-82
2020/12/18 12:36:56;;;;;;;;;;;;;;;;;;5035673;28;1870;-83
2020/12/18 12:39:21;;;;;;;;;;;;;;;;;;5034552;28;1203;-83
2020/12/18 12:41:46;;;;;;;;;;;;;;;;;;5035476;28;1286;-83
2020/12/18 12:44:12;;;;;;;;;;;;;;;;;;5035604;28;1265;-83
2020/12/18 12:46:37;;;;;;;;;;;;;;;;;;5035806;28;857;-83
2020/12/18 12:49:02;;;;;;;;;;;;;;;;;;5060139;28;790;-83
2020/12/18 12:51:28;;;;;;;;;;;;;;;;;;5034233;28;1380;-83
2020/12/18 12:53:53;;;;;;;;;;;;;;;;;;5035397;28;936;-83
2020/12/18 12:56:18;;;;;;;;;;;;;;;;;;5034563;28;1194;-83
2020/12/18 12:58:44;;;;;;;;;;;;;;;;;;5034581;28;1894;-83
2020/12/18 13:01:09;;;;;;;;;;;;;;;;;;5035127;28;969;-83
2020/12/18 13:03:34;;;;;;;;;;;;;;;;;;5035333;28;1412;-83
2020/12/18 13:05:59;;;;;;;;;;;;;;;;;;5035153;28;830;-82
2020/12/18 13:08:25;;;;;;;;;;;;;;;;;;5034352;28;839;-83
2020/12/18 13:10:50;;;;;;;;;;;;;;;;;;5035145;28;885;-83
2020/12/18 13:13:15;;;;;;;;;;;;;;;;;;5035180;28;1361;-83
2020/12/18 13:15:41;;;;;;;;;;;;;;;;;;5035377;28;826;-83
2020/12/18 13:18:08;;;;;;;;;;;;;;;;;;5034479;28;1910;-83
2020/12/18 13:20:34;;;;;;;;;;;;;;;;;;5035139;28;846;-83
2020/12/18 13:22:59;;;;;;;;;;;;;;;;;;5035649;28;1301;-83
2020/12/18 13:25:24;;;;;;;;;;;;;;;;;;5034040;28;1637;-83
2020/12/18 13:27:50;;;;;;;;;;;;;;;;;;5033916;28;1324;-83
2020/12/18 13:30:16;;;;;;;;;;;;;;;;;;5035861;28;798;-83
2020/12/18 13:32:41;;;;;;;;;;;;;;;;;;5035633;28;1388;-82
2020/12/18 13:35:09;;;;;;;;;;;;;;;;;;5035530;28;829;-85
2020/12/18 13:37:38;;;;;;;;;;;;;;;;;;5036304;28;1890;-84
2020/12/18 13:40:04;;;;;;;;;;;;;;;;;;5035721;28;942;-82
2020/12/18 13:42:29;;;;;;;;;;;;;;;;;;5041111;28;1306;-91
2020/12/18 13:44:55;;;;;;;;;;;;;;;;;;5036284;28;1240;-81
2020/12/18 13:47:20;;;;;;;;;;;;;;;;;;5035327;28;893;-82
2020/12/18 13:49:45;;;;;;;;;;;;;;;;;;5033968;28;846;-83
2020/12/18 13:52:11;;;;;;;;;;;;;;;;;;5034702;28;1404;-82
2020/12/18 13:54:37;;;;;;;;;;;;;;;;;;5035401;28;1362;-82
2020/12/18 13:57:03;;;;;;;;;;;;;;;;;;5035868;28;1893;-84
2020/12/18 13:59:29;;;;;;;;;;;;;;;;;;5033391;28;1143;-83
2020/12/18 14:02:01;;;;;;;;;;;;;;;;;;5034479;28;1313;-83
2020/12/18 14:04:27;;;;;;;;;;;;;;;;;;5034537;28;853;-84
2020/12/18 14:06:58;;;;;;;;;;;;;;;;;;5035982;28;1275;-83
2020/12/18 14:09:24;;;;;;;;;;;;;;;;;;5038673;28;893;-84
2020/12/18 14:11:50;;;;;;;;;;;;;;;;;;5037397;28;1500;-83
2020/12/18 14:14:15;;;;;;;;;;;;;;;;;;5037183;28;1201;-83
2020/12/18 14:16:41;;;;;;;;;;;;;;;;;;5038507;28;1951;-84
2020/12/18 14:19:06;;;;;;;;;;;;;;;;;;5037346;28;1136;-85
2020/12/18 14:21:31;;;;;;;;;;;;;;;;;;5036150;28;1304;-85
2020/12/18 14:23:57;;;;;;;;;;;;;;;;;;5037580;28;770;-85
2020/12/18 14:26:22;;;;;;;;;;;;;;;;;;5036278;28;854;-85
2020/12/18 14:28:48;;;;;;;;;;;;;;;;;;5036469;28;1148;-85
2020/12/18 14:31:13;;;;;;;;;;;;;;;;;;5037320;28;1286;-85
2020/12/18 14:33:39;;;;;;;;;;;;;;;;;;5030880;28;1104;-85
2020/12/18 14:36:04;;;;;;;;;;;;;;;;;;5033091;28;1278;-85
2020/12/18 14:38:29;;;;;;;;;;;;;;;;;;5037226;28;1966;-85
2020/12/18 14:40:54;;;;;;;;;;;;;;;;;;5016360;28;1267;-85
2020/12/18 14:43:20;;;;;;;;;;;;;;;;;;5017353;28;1313;-85
2020/12/18 14:45:45;;;;;;;;;;;;;;;;;;5016120;28;727;-85
2020/12/18 14:48:10;;;;;;;;;;;;;;;;;;5016000;28;1335;-85
2020/12/18 14:50:35;;;;;;;;;;;;;;;;;;5015923;28;819;-85
2020/12/18 14:53:01;;;;;;;;;;;;;;;;;;5017247;28;1359;-85
2020/12/18 14:55:28;;;;;;;;;;;;;;;;;;5015890;28;906;-84
2020/12/18 14:57:53;;;;;;;;;;;;;;;;;;5015873;28;1958;-84
2020/12/18 15:00:19;;;;;;;;;;;;;;;;;;5015835;28;1142;-84
2020/12/18 15:02:44;;;;;;;;;;;;;;;;;;5015712;28;2069;-84
2020/12/18 15:05:09;;;;;;;;;;;;;;;;;;5015773;28;1219;-85
2020/12/18 15:07:34;;;;;;;;;;;;;;;;;;5017324;28;791;-84
2020/12/18 15:10:00;;;;;;;;;;;;;;;;;;5016005;28;937;-84
2020/12/18 15:12:25;;;;;;;;;;;;;;;;;;5016795;28;1452;-84
2020/12/18 15:14:50;;;;;;;;;;;;;;;;;;5026867;28;1266;-84
2020/12/18 15:17:17;;;;;;;;;;;;;;;;;;5026514;28;1898;-84
2020/12/18 15:19:42;;;;;;;;;;;;;;;;;;5026843;28;1385;-84
2020/12/18 15:22:07;;;;;;;;;;;;;;;;;;5028748;28;1452;-84
2020/12/18 15:24:33;;;;;;;;;;;;;;;;;;5028647;28;1222;-83
2020/12/18 15:26:58;;;;;;;;;;;;;;;;;;5025208;28;1282;-84
2020/12/18 15:29:23;;;;;;;;;;;;;;;;;;5028356;28;1382;-84
2020/12/18 15:31:48;;;;;;;;;;;;;;;;;;5029131;28;1321;-85
2020/12/18 15:34:14;;;;;;;;;;;;;;;;;;5017904;28;1259;-84
2020/12/18 15:36:39;;;;;;;;;;;;;;;;;;5015097;28;1878;-84
2020/12/18 15:39:04;;;;;;;;;;;;;;;;;;5016320;28;837;-84
2020/12/18 15:41:30;;;;;;;;;;;;;;;;;;5015070;28;1391;-85
2020/12/18 15:43:55;;;;;;;;;;;;;;;;;;5015091;28;877;-85
2020/12/18 15:46:20;;;;;;;;;;;;;;;;;;5015386;28;878;-85
2020/12/18 15:48:45;;;;;;;;;;;;;;;;;;5015407;28;1182;-85
2020/12/18 15:51:15;;;;;;;;;;;;;;;;;;5014760;28;1182;-85
2020/12/18 15:53:40;;;;;;;;;;;;;;;;;;5016187;28;814;-84
2020/12/18 15:56:11;;;;;;;;;;;;;;;;;;5015317;28;1325;-84
2020/12/18 15:58:36;;;;;;;;;;;;;;;;;;5023963;28;1955;-85
2020/12/18 16:01:02;;;;;;;;;;;;;;;;;;5033076;28;1361;-85
2020/12/18 16:03:27;;;;;;;;;;;;;;;;;;5035786;28;1416;-85
2020/12/18 16:05:52;;;;;;;;;;;;;;;;;;5035742;28;905;-85
2020/12/18 16:08:17;;;;;;;;;;;;;;;;;;5035376;28;1092;-84
2020/12/18 16:10:42;;;;;;;;;;;;;;;;;;5035853;28;802;-84
2020/12/18 16:13:08;;;;;;;;;;;;;;;;;;5034231;28;1353;-85
2020/12/18 16:15:33;;;;;;;;;;;;;;;;;;5034575;28;1193;-84
2020/12/18 16:17:58;;;;;;;;;;;;;;;;;;5034090;28;1898;-84
2020/12/18 16:20:23;;;;;;;;;;;;;;;;;;5034363;28;1444;-84
2020/12/18 16:22:49;;;;;;;;;;;;;;;;;;5033994;28;1366;-85
2020/12/18 16:25:14;;;;;;;;;;;;;;;;;;5035350;28;868;-85
2020/12/18 16:27:39;;;;;;;;;;;;;;;;;;5033903;28;1181;-85
2020/12/18 16:30:06;;;;;;;;;;;;;;;;;;5033239;28;1269;-85
2020/12/18 16:32:38;;;;;;;;;;;;;;;;;;5035124;28;1383;-85
2020/12/18 16:35:03;;;;;;;;;;;;;;;;;;5033937;28;1469;-84
2020/12/18 16:37:29;;;;;;;;;;;;;;;;;;5034945;28;1886;-84
2020/12/18 16:39:54;;;;;;;;;;;;;;;;;;5033949;28;838;-85
2020/12/18 16:42:19;;;;;;;;;;;;;;;;;;5035343;28;1309;-84
2020/12/18 16:44:46;;;;;;;;;;;;;;;;;;5034966;28;763;-84
2020/12/18 16:47:11;;;;;;;;;;;;;;;;;;5033648;28;1459;-84
2020/12/18 16:49:36;;;;;;;;;;;;;;;;;;5033493;28;1421;-85
2020/12/18 16:52:02;;;;;;;;;;;;;;;;;;5031944;28;1476;-84
2020/12/18 16:54:27;;;;;;;;;;;;;;;;;;5033911;28;1412;-85
2020/12/18 16:56:52;;;;;;;;;;;;;;;;;;5034848;28;1961;-84
2020/12/18 16:59:17;;;;;;;;;;;;;;;;;;5033622;28;1228;-84
2020/12/18 17:01:43;;;;;;;;;;;;;;;;;;5033398;28;1295;-84
2020/12/18 17:04:08;;;;;;;;;;;;;;;;;;5033340;28;1221;-84